• Join FlightAware (Why Join?)
  • Login
  • US Flag 
09:22PM EDT


 

Airport Tracker/Info


-or-


 

Live Flight TrackerFlight Track Log ✈ N475JC ✈ 28-Apr-2013 ✈ KBWI - KLWB

Flight Track Log - Related Links

Times and Time Zones

All times are in EDT time to prevent confusion due to time zone crossing. See the N475JC flight status page for this flight to view local times or setup timezone preferences in your user account.

Time Position Orientation Groundspeed Altitude Reporting Facility
EDT Latitude Longitude Course Direction KTS MPH feet Rate Location/Type
01:01PM 39.1167 -76.6833 191° South 243 280 3,900  Level Potomac TRACON
01:02PM 39.1667 -76.7500 314° West 276 318 5,900 2,940 Climbing Potomac TRACON
01:03PM 39.2333 -76.8167 322° Northwest 278 320 9,800 3,900 Climbing Potomac TRACON
01:04PM 39.2500 -76.9000 285° West 273 314 13,800 3,540 Climbing Potomac TRACON
01:05PM 39.2500 -77.0000 270° West 275 316 16,900 1,620 Climbing Potomac TRACON
01:06PM 39.1833 -77.0667 218° Southwest 338 389 17,100 480 Climbing Potomac TRACON
01:07PM 39.1167 -77.1500 224° Southwest 347 399 17,900 1,200 Climbing Potomac TRACON
01:08PM 39.0333 -77.2167 212° Southwest 318 366 19,600 2,100 Climbing Potomac TRACON
01:09PM 38.9667 -77.2833 218° Southwest 310 357 22,200 1,020 Climbing Potomac TRACON
01:11PM 38.8117 -77.4406 218° Southwest 366 421 23,000 240 Climbing Washington Center
01:12PM 38.7292 -77.5183 216° Southwest 361 415 23,000 720 Level Washington Center
01:13PM 38.6467 -77.5958 216° Southwest 373 429 24,500 1,500 Climbing Washington Center
01:14PM 38.5681 -77.6708 217° Southwest 367 422 26,000 720 Climbing Washington Center
01:15PM 38.4872 -77.7614 221° Southwest 362 417 26,000  Level Washington Center
01:16PM 38.4536 -77.8878 251° West 357 411 26,000  Level Washington Center
01:17PM 38.4261 -78.0167 255° West 364 419 26,000  Level Washington Center
01:18PM 38.3964 -78.1481 254° West 379 436 26,000  Level Washington Center
01:19PM 38.3664 -78.2794 254° West 384 442 26,000  Level Washington Center
01:20PM 38.3383 -78.4136 255° West 390 449 26,000  Level Washington Center
01:21PM 38.3058 -78.5472 253° West 396 456 26,000  Level Washington Center
01:22PM 38.2753 -78.6811 254° West 396 456 26,000  Level Washington Center
01:23PM 38.2489 -78.8119 256° West 396 456 26,000  Level Washington Center
01:24PM 38.2183 -78.9350 252° West 396 456 26,000  Level Washington Center
01:25PM 38.1897 -79.0658 254° West 396 456 26,000 -180 Level Washington Center
01:26PM 38.1564 -79.2017 253° West 396 456 25,700 -1,500 Descending Washington Center
01:27PM 38.1275 -79.3322 254° West 396 456 23,000 -3,120 Descending Washington Center
01:28PM 38.0961 -79.4653 253° West 391 450 19,500 -3,120 Descending Washington Center
01:29PM 38.0694 -79.5772 253° West 357 411 16,900 -2,760 Descending Washington Center
01:30PM 38.0456 -79.6708 252° West 320 368 14,000 -2,880 Descending Washington Center
01:31PM 38.0281 -79.7517 255° West 283 326 11,100 -2,340 Descending Washington Center
01:32PM 38.0064 -79.8375 252° West 270 311 9,300 -1,440 Descending Washington Center
01:33PM 37.9894 -79.9025 252° West 234 269 8,400 -1,020 Descending Washington Center
01:34PM 37.9767 -79.9650 255° West 201 231 7,400 -660 Descending Washington Center
01:35PM 37.9644 -80.0169 253° West 163 188 7,100 -180 Descending Washington Center
01:36PM 37.9650 -80.0564 271° West 136 157 7,100 -60 Level Washington Center
01:37PM 38.0150 -80.0594 357° North 106 122 7,000 -60 Descending Washington Center
01:38PM 38.0631 -80.0569 North 139 160 7,000  Level Washington Center
01:39PM 38.0831 -80.0819 315° West 150 173 7,000  Level Washington Center
01:40PM 38.0753 -80.1236 257° West 93 107 7,000 -60 Level Washington Center
01:41PM 38.0633 -80.1600 247° West 98 113 6,900 -540 Descending Washington Center
01:42PM 38.0469 -80.2064 246° West 124 143 6,000 -540 Descending Washington Center
01:43PM 38.0242 -80.2550 239° Southwest 147 169 5,900 -600 Descending Washington Center
01:44PM 37.9897 -80.2872 216° Southwest 153 176 4,800 -900 Descending Washington Center
01:45PM 37.9528 -80.3192 214° Southwest 163 188 4,200 -540 Descending Washington Center
01:46PM 37.9183 -80.3511 216° Southwest 163 188 3,800 -480 Descending Washington Center
01:47PM 37.8814 -80.3831 214° Southwest 163 188 3,300 -540 Descending Washington Center